Time;durP1;ratioP1;P1;durP2;ratioP2;P2;SDS_P1;SDS_P2;PMS_P1;PMS_P2;Temp;Humidity;BMP_temperature;BMP_pressure;BME280_temperature;BME280_humidity;BME280_pressure;Samples;Min_cycle;Max_cycle;Signal;HPM_P1;HPM_P2
2023/08/22 00:00:58;;;;;;;;;;;;;;;;;;5113398;27;20047;-74
2023/08/22 00:03:24;;;;;;;8.48;3.67;;;;;;;;;;5120663;27;19925;-77
2023/08/22 00:05:50;;;;;;;11.40;3.58;;;;;;;;;;5118533;27;20073;-75
2023/08/22 00:08:16;;;;;;;9.57;3.80;;;;;;;;;;5124902;27;20043;-74
2023/08/22 00:10:42;;;;;;;;;;;;;;;;;;5123374;27;20045;-74
2023/08/22 00:13:08;;;;;;;8.35;3.40;;;;;;;;;;5133980;27;19919;-74
2023/08/22 00:15:34;;;;;;;7.00;2.95;;;;;;;;;;5137231;27;20043;-79
2023/08/22 00:18:01;;;;;;;;;;;;;;;;;;5137522;27;20084;-76
2023/08/22 00:20:27;;;;;;;9.60;2.70;;;;;;;;;;5120815;27;19988;-74
2023/08/22 00:22:53;;;;;;;7.75;2.78;;;;;;;;;;5119536;27;20455;-74
2023/08/22 00:25:19;;;;;;;6.05;2.70;;;;;;;;;;5107853;27;20479;-75
2023/08/22 00:27:45;;;;;;;5.75;2.80;;;;;;;;;;5125462;27;20099;-76
2023/08/22 00:30:11;;;;;;;;;;;;;;;;;;5108361;27;20138;-75
2023/08/22 00:32:37;;;;;;;12.73;3.33;;;;;;;;;;5124684;27;20377;-78
2023/08/22 00:35:03;;;;;;;6.32;3.40;;;;;;;;;;5112774;27;20078;-75
2023/08/22 00:37:30;;;;;;;7.10;3.10;;;;;;;;;;5129749;27;20047;-74
2023/08/22 00:39:56;;;;;;;;;;;;;;;;;;5090141;27;20043;-75
2023/08/22 00:42:22;;;;;;;9.85;3.63;;;;;;;;;;5098308;28;20390;-74
2023/08/22 00:44:48;;;;;;;;;;;;;;;;;;5089186;27;20051;-75
2023/08/22 00:47:14;;;;;;;8.57;4.28;;;;;;;;;;5136668;27;20290;-74
2023/08/22 00:49:40;;;;;;;10.48;3.90;;;;;;;;;;5136358;27;20118;-75
2023/08/22 00:52:07;;;;;;;11.93;4.70;;;;;;;;;;5123183;27;20043;-74
2023/08/22 00:54:33;;;;;;;7.97;4.72;;;;;;;;;;5129860;27;20046;-75
2023/08/22 00:56:59;;;;;;;;;;;;;;;;;;5135572;27;20078;-74
2023/08/22 00:59:28;;;;;;;9.05;4.72;;;;;;;;;;5122311;27;19970;-74
2023/08/22 01:01:54;;;;;;;12.43;5.68;;;;;;;;;;5135803;27;20059;-74
2023/08/22 01:04:21;;;;;;;11.77;5.07;;;;;;;;;;5105887;27;20075;-74
2023/08/22 01:06:52;;;;;;;11.70;5.25;;;;;;;;;;5098534;28;20054;-75
2023/08/22 01:09:33;;;;;;;14.80;6.03;;;;;;;;;;5096024;28;20063;-74
2023/08/22 01:12:06;;;;;;;12.63;6.13;;;;;;;;;;5102550;27;20050;-74
2023/08/22 01:14:35;;;;;;;16.13;7.25;;;;;;;;;;5098327;27;20082;-74
2023/08/22 01:17:01;;;;;;;13.40;6.82;;;;;;;;;;5113150;27;20173;-75
2023/08/22 01:19:28;;;;;;;11.45;5.22;;;;;;;;;;5101054;27;20134;-74
2023/08/22 01:21:54;;;;;;;11.90;6.10;;;;;;;;;;5096982;27;20051;-76
2023/08/22 01:24:20;;;;;;;11.35;5.72;;;;;;;;;;5088995;27;20047;-74
2023/08/22 01:26:47;;;;;;;12.80;5.65;;;;;;;;;;5115424;27;20049;-75
2023/08/22 01:29:17;;;;;;;11.63;5.85;;;;;;;;;;5085560;28;20497;-75
2023/08/22 01:31:52;;;;;;;11.68;5.35;;;;;;;;;;5109961;27;20074;-77
2023/08/22 01:34:21;;;;;;;13.30;5.82;;;;;;;;;;5098483;27;20127;-74
2023/08/22 01:36:47;;;;;;;15.00;5.50;;;;;;;;;;5102354;28;20051;-75
2023/08/22 01:39:15;;;;;;;15.02;6.10;;;;;;;;;;5094990;28;20046;-75
2023/08/22 01:41:42;;;;;;;12.20;5.80;;;;;;;;;;5077739;28;20055;-75
2023/08/22 01:44:08;;;;;;;9.85;5.28;;;;;;;;;;5094175;28;20047;-74
2023/08/22 01:46:34;;;;;;;;;;;;;;;;;;5096475;27;20053;-75
2023/08/22 01:49:00;;;;;;;8.85;5.22;;;;;;;;;;5104532;28;19927;-74
2023/08/22 01:51:26;;;;;;;;;;;;;;;;;;5095899;28;20051;-75
2023/08/22 01:53:52;;;;;;;8.23;4.13;;;;;;;;;;5077528;28;19920;-74
2023/08/22 01:56:18;;;;;;;;;;;;;;;;;;5090610;27;20093;-75
2023/08/22 01:58:44;;;;;;;9.10;5.10;;;;;;;;;;5114247;27;19967;-75
2023/08/22 02:01:13;;;;;;;11.73;6.35;;;;;;;;;;5113603;27;20051;-75
2023/08/22 02:03:40;;;;;;;11.65;5.30;;;;;;;;;;5115047;27;20533;-74
2023/08/22 02:06:06;;;;;;;9.68;4.57;;;;;;;;;;5113554;27;20057;-75
2023/08/22 02:08:32;;;;;;;10.63;4.60;;;;;;;;;;5094640;28;20039;-74
2023/08/22 02:10:58;;;;;;;;;;;;;;;;;;5095130;27;20044;-74
2023/08/22 02:13:24;;;;;;;9.77;4.80;;;;;;;;;;5098466;28;19926;-74
2023/08/22 02:15:51;;;;;;;11.52;4.50;;;;;;;;;;5077512;27;20047;-74
2023/08/22 02:18:17;;;;;;;6.63;4.40;;;;;;;;;;5115142;27;20043;-74
2023/08/22 02:20:42;;;;;;;;;;;;;;;;;;5098728;27;20103;-75
2023/08/22 02:23:09;;;;;;;7.97;3.90;;;;;;;;;;5114478;27;20509;-74
2023/08/22 02:25:35;;;;;;;9.15;4.43;;;;;;;;;;5114821;27;20051;-74
2023/08/22 02:28:02;;;;;;;8.65;4.80;;;;;;;;;;5113279;27;20047;-74
2023/08/22 02:30:28;;;;;;;10.07;4.97;;;;;;;;;;5095932;28;20055;-74
2023/08/22 02:32:54;;;;;;;;;;;;;;;;;;5080770;27;21082;-74
2023/08/22 02:35:20;;;;;;;10.13;4.28;;;;;;;;;;5077915;28;20000;-75
2023/08/22 02:37:46;;;;;;;;;;;;;;;;;;5114537;27;20042;-74
2023/08/22 02:40:12;;;;;;;9.82;4.97;;;;;;;;;;5113965;27;19926;-74
2023/08/22 02:42:38;;;;;;;10.95;5.15;;;;;;;;;;5114242;28;20134;-74
2023/08/22 02:45:05;;;;;;;12.40;5.25;;;;;;;;;;5112670;28;20062;-74
2023/08/22 02:47:31;;;;;;;8.40;5.10;;;;;;;;;;5094097;28;20131;-74
2023/08/22 02:49:57;;;;;;;9.52;5.57;;;;;;;;;;5093340;28;20044;-75
2023/08/22 02:52:24;;;;;;;11.32;5.93;;;;;;;;;;5077035;28;20056;-74
2023/08/22 02:54:51;;;;;;;15.23;5.75;;;;;;;;;;5093427;28;20047;-77
2023/08/22 02:57:17;;;;;;;14.25;6.53;;;;;;;;;;5109368;28;20047;-74
2023/08/22 02:59:43;;;;;;;;;;;;;;;;;;5112701;28;20051;-74
2023/08/22 03:02:09;;;;;;;10.35;6.28;;;;;;;;;;5093358;28;19973;-75
2023/08/22 03:04:37;;;;;;;;;;;;;;;;;;5113186;28;20046;-74
2023/08/22 03:07:04;;;;;;;13.10;7.63;;;;;;;;;;5104060;28;20071;-75
2023/08/22 03:09:30;;;;;;;17.67;8.00;;;;;;;;;;5094465;28;20047;-74
2023/08/22 03:11:56;;;;;;;13.80;7.32;;;;;;;;;;5076035;28;20619;-74
2023/08/22 03:14:22;;;;;;;14.20;7.93;;;;;;;;;;5093224;28;20051;-74
2023/08/22 03:16:48;;;;;;;;;;;;;;;;;;5094138;28;20046;-74
2023/08/22 03:19:14;;;;;;;16.83;7.93;;;;;;;;;;5093231;28;19919;-74
2023/08/22 03:21:40;;;;;;;;;;;;;;;;;;5094416;28;20043;-75
2023/08/22 03:24:06;;;;;;;17.20;8.00;;;;;;;;;;5102102;28;19927;-74
2023/08/22 03:26:32;;;;;;;9.45;5.25;;;;;;;;;;5110635;28;20096;-75
2023/08/22 03:28:59;;;;;;;9.85;4.80;;;;;;;;;;5094448;28;20048;-74
2023/08/22 03:31:28;;;;;;;;;;;;;;;;;;5109748;28;20044;-75
2023/08/22 03:33:54;;;;;;;7.65;4.80;;;;;;;;;;5097333;28;19919;-77
2023/08/22 03:36:20;;;;;;;;;;;;;;;;;;5114403;28;20094;-74
2023/08/22 03:38:48;;;;;;;8.98;5.88;;;;;;;;;;5096589;28;20383;-74
2023/08/22 03:41:14;;;;;;;10.52;6.07;;;;;;;;;;5096538;28;20043;-75
2023/08/22 03:43:40;;;;;;;;;;;;;;;;;;5096726;28;20051;-74
2023/08/22 03:46:06;;;;;;;9.82;6.18;;;;;;;;;;5096033;28;19972;-74
2023/08/22 03:48:32;;;;;;;;;;;;;;;;;;5114823;28;20050;-74
2023/08/22 03:50:59;;;;;;;12.10;6.72;;;;;;;;;;5099422;28;19920;-77
2023/08/22 03:53:25;;;;;;;13.95;6.95;;;;;;;;;;5105954;28;20051;-75
2023/08/22 03:55:51;;;;;;;;;;;;;;;;;;5114045;28;20433;-74
2023/08/22 03:58:18;;;;;;;12.07;7.35;;;;;;;;;;5092655;28;20693;-75
2023/08/22 04:00:43;;;;;;;;;;;;;;;;;;5107611;28;20062;-75
2023/08/22 04:03:10;;;;;;;14.48;8.55;;;;;;;;;;5092587;28;20284;-75
2023/08/22 04:05:35;;;;;;;;;;;;;;;;;;5079850;28;20048;-75
2023/08/22 04:08:01;;;;;;;16.83;9.60;;;;;;;;;;5093965;27;19926;-75
2023/08/22 04:10:27;;;;;;;;;;;;;;;;;;5117653;27;20047;-75
2023/08/22 04:12:53;;;;;;;11.02;7.93;;;;;;;;;;5113956;27;20011;-75
2023/08/22 04:15:19;;;;;;;;;;;;;;;;;;5116898;27;20138;-74
2023/08/22 04:17:45;;;;;;;15.00;8.68;;;;;;;;;;5116972;27;20391;-74
2023/08/22 04:20:12;;;;;;;;;;;;;;;;;;5087326;27;20087;-74
2023/08/22 04:22:41;;;;;;;17.52;10.27;;;;;;;;;;5117371;27;19926;-75
2023/08/22 04:25:08;;;;;;;20.27;11.48;;;;;;;;;;5098543;27;20043;-75
2023/08/22 04:27:34;;;;;;;21.73;11.98;;;;;;;;;;5116060;27;20551;-74
2023/08/22 04:30:01;;;;;;;;;;;;;;;;;;5116735;27;20069;-77
2023/08/22 04:32:27;;;;;;;19.52;10.60;;;;;;;;;;5113567;27;19934;-75
2023/08/22 04:34:53;;;;;;;;;;;;;;;;;;5094139;28;20054;-74
2023/08/22 04:37:19;;;;;;;18.52;11.13;;;;;;;;;;5106590;27;19919;-74
2023/08/22 04:39:45;;;;;;;;;;;;;;;;;;5117240;27;20502;-74
2023/08/22 04:42:11;;;;;;;16.40;10.10;;;;;;;;;;5115850;27;19923;-74
2023/08/22 04:44:37;;;;;;;;;;;;;;;;;;5100025;27;20107;-74
2023/08/22 04:47:03;;;;;;;21.98;13.23;;;;;;;;;;5089261;28;19966;-75
2023/08/22 04:49:29;;;;;;;12.95;7.75;;;;;;;;;;5096562;28;20050;-74
2023/08/22 04:51:55;;;;;;;;;;;;;;;;;;5096911;28;20387;-74
2023/08/22 04:54:21;;;;;;;9.45;4.65;;;;;;;;;;5109466;27;19919;-75
2023/08/22 04:56:47;;;;;;;;;;;;;;;;;;5099937;27;20115;-74
2023/08/22 04:59:13;;;;;;;19.80;3.30;;;;;;;;;;5109157;27;20368;-75
2023/08/22 05:01:39;;;;;;;;;;;;;;;;;;5104465;27;20054;-75
2023/08/22 05:04:05;;;;;;;9.18;5.45;;;;;;;;;;5115789;27;19923;-74
2023/08/22 05:06:31;;;;;;;12.50;5.93;;;;;;;;;;5108363;27;20083;-74
2023/08/22 05:08:57;;;;;;;;;;;;;;;;;;5116334;27;20116;-74
2023/08/22 05:11:23;;;;;;;10.45;7.10;;;;;;;;;;5115735;27;19923;-74
2023/08/22 05:13:49;;;;;;;;;;;;;;;;;;5115907;27;20084;-75
2023/08/22 05:16:15;;;;;;;13.32;8.13;;;;;;;;;;5115022;27;19923;-75
2023/08/22 05:18:41;;;;;;;;;;;;;;;;;;5099032;27;20071;-75
2023/08/22 05:21:07;;;;;;;13.80;7.40;;;;;;;;;;5115102;27;19970;-75
2023/08/22 05:23:35;;;;;;;;;;;;;;;;;;5109644;27;20115;-74
2023/08/22 05:26:01;;;;;;;16.38;10.13;;;;;;;;;;5111770;28;19920;-74
2023/08/22 05:28:27;;;;;;;;;;;;;;;;;;5101423;27;20780;-75
2023/08/22 05:30:53;;;;;;;15.48;10.25;;;;;;;;;;5115597;27;19958;-74
2023/08/22 05:33:19;;;;;;;;;;;;;;;;;;5116010;27;20043;-75
2023/08/22 05:35:45;;;;;;;20.98;11.55;;;;;;;;;;5100282;28;19965;-74
2023/08/22 05:38:11;;;;;;;;;;;;;;;;;;5078295;28;20043;-75
2023/08/22 05:40:37;;;;;;;22.30;11.88;;;;;;;;;;5095506;28;20284;-74
2023/08/22 05:43:03;;;;;;;;;;;;;;;;;;5094857;28;20139;-74
2023/08/22 05:45:29;;;;;;;20.23;12.52;;;;;;;;;;5096082;27;20380;-74
2023/08/22 05:47:55;;;;;;;25.20;13.88;;;;;;;;;;5114573;27;20043;-74
2023/08/22 05:50:21;;;;;;;19.60;13.05;;;;;;;;;;5079217;27;20184;-75
2023/08/22 05:52:47;;;;;;;;;;;;;;;;;;5097883;27;20047;-74
2023/08/22 05:55:13;;;;;;;21.38;12.75;;;;;;;;;;5114663;27;19931;-74
2023/08/22 05:57:39;;;;;;;;;;;;;;;;;;5115375;27;20047;-74
2023/08/22 06:00:08;;;;;;;23.50;12.60;;;;;;;;;;5097800;27;19919;-74
2023/08/22 06:02:34;;;;;;;24.45;12.82;;;;;;;;;;5097890;27;20134;-74
2023/08/22 06:05:00;;;;;;;22.77;13.68;;;;;;;;;;5098321;27;20051;-74
2023/08/22 06:07:26;;;;;;;18.88;12.85;;;;;;;;;;5095934;28;20450;-74
2023/08/22 06:09:53;;;;;;;16.52;11.68;;;;;;;;;;5081991;27;20520;-74
2023/08/22 06:12:19;;;;;;;;;;;;;;;;;;5114240;27;20086;-74
2023/08/22 06:14:45;;;;;;;21.05;13.55;;;;;;;;;;5114858;27;19924;-74
2023/08/22 06:17:11;;;;;;;20.58;13.25;;;;;;;;;;5099825;28;20040;-75
2023/08/22 06:19:37;;;;;;;;;;;;;;;;;;5093590;27;20099;-74
2023/08/22 06:22:03;;;;;;;20.73;13.43;;;;;;;;;;5110564;28;19923;-74
2023/08/22 06:24:29;;;;;;;;;;;;;;;;;;5094446;28;20128;-75
2023/08/22 06:26:55;;;;;;;22.77;13.93;;;;;;;;;;5076979;28;19923;-74
2023/08/22 06:29:21;;;;;;;;;;;;;;;;;;5093626;28;20047;-74
2023/08/22 06:31:47;;;;;;;28.77;13.95;;;;;;;;;;5093950;28;19927;-75
2023/08/22 06:34:13;;;;;;;;;;;;;;;;;;5108478;27;20107;-75
2023/08/22 06:36:39;;;;;;;24.27;15.18;;;;;;;;;;5085091;28;19920;-74
2023/08/22 06:39:05;;;;;;;24.77;14.68;;;;;;;;;;5092643;28;20097;-75
2023/08/22 06:41:31;;;;;;;23.75;13.75;;;;;;;;;;5082911;27;20095;-75
2023/08/22 06:43:57;;;;;;;;;;;;;;;;;;5096226;27;20039;-74
2023/08/22 06:46:23;;;;;;;28.60;15.60;;;;;;;;;;5100926;28;19919;-75
2023/08/22 06:48:49;;;;;;;;;;;;;;;;;;5078159;28;20540;-75
2023/08/22 06:51:15;;;;;;;23.38;12.60;;;;;;;;;;5076952;28;20006;-75
2023/08/22 06:53:41;;;;;;;22.10;12.52;;;;;;;;;;5077152;28;20189;-74
2023/08/22 06:56:07;;;;;;;;;;;;;;;;;;5088447;28;20043;-74
2023/08/22 06:58:33;;;;;;;20.25;12.23;;;;;;;;;;5112955;28;19926;-74
2023/08/22 07:00:59;;;;;;;;;;;;;;;;;;5106405;28;20122;-76
2023/08/22 07:03:25;;;;;;;18.45;10.75;;;;;;;;;;5132055;27;20002;-70
2023/08/22 07:05:52;;;;;;;20.10;11.50;;;;;;;;;;5134600;27;20061;-70
2023/08/22 07:08:19;;;;;;;17.38;10.50;;;;;;;;;;5117270;27;20086;-70
2023/08/22 07:10:45;;;;;;;18.35;10.57;;;;;;;;;;5153073;27;20049;-75
2023/08/22 07:13:11;;;;;;;20.30;10.70;;;;;;;;;;5133439;27;20098;-75
2023/08/22 07:15:37;;;;;;;20.23;10.15;;;;;;;;;;5117330;27;20130;-75
2023/08/22 07:18:03;;;;;;;;;;;;;;;;;;5134357;27;20042;-75
2023/08/22 07:20:29;;;;;;;19.10;10.05;;;;;;;;;;5112607;27;19964;-78
2023/08/22 07:22:55;;;;;;;;;;;;;;;;;;5120739;28;20741;-77
2023/08/22 07:25:21;;;;;;;19.73;9.55;;;;;;;;;;5106773;28;19966;-79
2023/08/22 07:27:47;;;;;;;17.23;9.60;;;;;;;;;;5103287;28;20043;-77
2023/08/22 07:30:13;;;;;;;;;;;;;;;;;;5106026;28;20075;-76
2023/08/22 07:32:39;;;;;;;16.83;10.20;;;;;;;;;;5112238;27;19970;-76
2023/08/22 07:35:05;;;;;;;17.25;9.38;;;;;;;;;;5082487;28;20048;-77
2023/08/22 07:37:31;;;;;;;18.30;9.63;;;;;;;;;;5078435;28;20058;-76
2023/08/22 07:39:58;;;;;;;16.45;9.13;;;;;;;;;;5080482;27;20047;-77
2023/08/22 07:42:24;;;;;;;20.48;9.35;;;;;;;;;;5100866;27;20558;-80
2023/08/22 07:44:49;;;;;;;;;;;;;;;;;;5095309;27;20467;-76
2023/08/22 07:47:16;;;;;;;17.05;8.65;;;;;;;;;;5132112;27;19944;-76
2023/08/22 07:49:42;;;;;;;17.10;8.63;;;;;;;;;;5115857;27;20402;-76
2023/08/22 07:52:08;;;;;;;14.88;8.25;;;;;;;;;;5117358;27;20107;-77
2023/08/22 07:54:34;;;;;;;17.50;8.95;;;;;;;;;;5111154;27;20051;-76
2023/08/22 07:57:00;;;;;;;16.08;8.23;;;;;;;;;;5092491;28;20079;-76
2023/08/22 07:59:26;;;;;;;14.18;7.47;;;;;;;;;;5122771;27;20094;-79
2023/08/22 08:01:53;;;;;;;16.10;7.30;;;;;;;;;;5136374;27;20121;-76
2023/08/22 08:04:19;;;;;;;17.70;7.95;;;;;;;;;;5119941;27;20045;-76
2023/08/22 08:06:46;;;;;;;13.10;6.25;;;;;;;;;;5119803;27;20214;-77
2023/08/22 08:09:13;;;;;;;11.07;6.40;;;;;;;;;;5112332;27;20047;-77
2023/08/22 08:11:39;;;;;;;10.98;5.57;;;;;;;;;;5127492;27;20491;-76
2023/08/22 08:14:06;;;;;;;14.63;5.50;;;;;;;;;;5128476;27;20039;-76
2023/08/22 08:16:32;;;;;;;11.88;5.40;;;;;;;;;;5110523;27;20042;-76
2023/08/22 08:18:59;;;;;;;13.23;5.07;;;;;;;;;;5128643;27;20076;-77
2023/08/22 08:21:25;;;;;;;13.48;5.40;;;;;;;;;;5132401;27;20066;-76
2023/08/22 08:23:51;;;;;;;10.30;4.75;;;;;;;;;;5092494;27;20486;-74
2023/08/22 08:26:17;;;;;;;8.30;4.53;;;;;;;;;;5092117;27;20418;-76
2023/08/22 08:28:43;;;;;;;10.70;3.40;;;;;;;;;;5100763;27;20368;-76
2023/08/22 08:31:09;;;;;;;7.97;2.78;;;;;;;;;;5136696;27;20049;-75
2023/08/22 08:33:36;;;;;;;7.30;2.67;;;;;;;;;;5129667;27;20509;-77
2023/08/22 08:36:03;;;;;;;8.00;3.00;;;;;;;;;;5096260;27;20126;-77
2023/08/22 08:38:30;;;;;;;6.40;3.22;;;;;;;;;;5132419;27;20109;-78
2023/08/22 08:41:00;;;;;;;7.88;3.63;;;;;;;;;;5094301;27;20047;-75
2023/08/22 08:43:26;;;;;;;8.90;3.30;;;;;;;;;;5130621;27;20460;-78
2023/08/22 08:45:52;;;;;;;6.85;3.55;;;;;;;;;;5089640;27;20190;-77
2023/08/22 08:48:18;;;;;;;8.68;3.80;;;;;;;;;;5133680;27;20054;-73
2023/08/22 08:50:45;;;;;;;8.00;3.70;;;;;;;;;;5111605;27;20047;-74
2023/08/22 08:53:11;;;;;;;7.72;3.15;;;;;;;;;;5119930;27;20092;-72
2023/08/22 08:55:40;;;;;;;6.18;2.90;;;;;;;;;;5133568;27;20047;-73
2023/08/22 08:58:08;;;;;;;7.82;2.90;;;;;;;;;;5135119;27;20480;-72
2023/08/22 09:00:34;;;;;;;7.82;2.85;;;;;;;;;;5104648;28;20557;-78
2023/08/22 09:03:00;;;;;;;7.20;2.40;;;;;;;;;;5102439;28;20488;-73
2023/08/22 09:05:29;;;;;;;7.13;2.50;;;;;;;;;;5097836;27;20053;-74
2023/08/22 09:07:55;;;;;;;7.32;2.38;;;;;;;;;;5115154;27;20059;-68
2023/08/22 09:10:34;;;;;;;8.75;2.72;;;;;;;;;;5114060;27;20122;-74
2023/08/22 09:13:04;;;;;;;5.85;2.50;;;;;;;;;;5094616;27;20540;-73
2023/08/22 09:15:30;;;;;;;4.53;2.13;;;;;;;;;;5085823;28;20043;-73
2023/08/22 09:17:56;;;;;;;3.83;2.28;;;;;;;;;;5094053;28;20043;-74
2023/08/22 09:20:23;;;;;;;6.43;2.25;;;;;;;;;;5104727;27;20090;-73
2023/08/22 09:22:49;;;;;;;4.30;1.90;;;;;;;;;;5096309;27;20054;-74
2023/08/22 09:25:16;;;;;;;4.55;1.60;;;;;;;;;;5080465;28;20097;-74
2023/08/22 09:27:42;;;;;;;2.65;1.45;;;;;;;;;;5112939;27;20046;-73
2023/08/22 09:30:08;;;;;;;5.20;1.60;;;;;;;;;;5107516;28;20084;-72
2023/08/22 09:32:34;;;;;;;4.68;2.03;;;;;;;;;;5094833;27;20048;-72
2023/08/22 09:35:01;;;;;;;5.65;1.90;;;;;;;;;;5109304;27;20078;-72
2023/08/22 09:37:34;;;;;;;3.95;1.90;;;;;;;;;;5115379;27;20041;-73
2023/08/22 09:40:00;;;;;;;5.45;1.70;;;;;;;;;;5094752;28;20071;-72
2023/08/22 09:42:29;;;;;;;6.90;2.17;;;;;;;;;;5094498;28;20051;-66
2023/08/22 09:44:59;;;;;;;5.32;2.00;;;;;;;;;;5112225;28;20054;-72
2023/08/22 09:47:28;;;;;;;6.13;2.08;;;;;;;;;;5113671;27;20051;-71
2023/08/22 09:49:56;;;;;;;5.00;1.90;;;;;;;;;;5114917;27;20051;-71
2023/08/22 09:52:25;;;;;;;4.85;1.90;;;;;;;;;;5115528;27;20051;-74
2023/08/22 09:54:51;;;;;;;4.38;1.90;;;;;;;;;;5114431;27;20105;-75
2023/08/22 09:57:18;;;;;;;4.00;2.05;;;;;;;;;;5108331;27;20659;-73
2023/08/22 09:59:46;;;;;;;9.95;2.33;;;;;;;;;;5095940;28;20551;-74
2023/08/22 10:02:12;;;;;;;4.05;1.60;;;;;;;;;;5086790;28;20059;-74
2023/08/22 10:04:39;;;;;;;4.32;1.63;;;;;;;;;;5115202;27;20051;-74
2023/08/22 10:07:05;;;;;;;8.43;1.83;;;;;;;;;;5103107;28;20043;-74
2023/08/22 10:09:32;;;;;;;6.00;1.80;;;;;;;;;;5094452;28;20548;-77
2023/08/22 10:12:00;;;;;;;5.90;1.88;;;;;;;;;;5093178;28;20051;-76
2023/08/22 10:14:29;;;;;;;7.90;2.00;;;;;;;;;;5085675;27;20045;-76
2023/08/22 10:16:56;;;;;;;3.67;1.45;;;;;;;;;;5114296;27;20043;-77
2023/08/22 10:19:25;;;;;;;3.28;1.70;;;;;;;;;;5114313;27;20043;-76
2023/08/22 10:21:53;;;;;;;3.85;1.52;;;;;;;;;;5113660;27;20043;-76
2023/08/22 10:24:39;;;;;;;5.40;2.28;;;;;;;;;;5088529;27;20133;-77
2023/08/22 10:27:06;;;;;;;7.93;2.10;;;;;;;;;;5090700;27;20057;-76
2023/08/22 10:29:36;;;;;;;5.72;2.10;;;;;;;;;;5101342;28;20482;-76
2023/08/22 10:32:05;;;;;;;7.32;2.30;;;;;;;;;;5093237;28;20043;-77
2023/08/22 10:34:40;;;;;;;5.82;2.00;;;;;;;;;;5080919;27;20047;-75
2023/08/22 10:37:14;;;;;;;7.38;1.77;;;;;;;;;;5117799;27;20538;-75
2023/08/22 10:39:41;;;;;;;4.97;2.00;;;;;;;;;;5117775;27;20527;-75
2023/08/22 10:42:07;;;;;;;4.97;1.75;;;;;;;;;;5131995;27;20039;-76
2023/08/22 10:44:36;;;;;;;3.63;1.60;;;;;;;;;;5127816;27;20479;-75
2023/08/22 10:47:18;;;;;;;5.97;1.80;;;;;;;;;;5109299;27;20046;-76
2023/08/22 10:49:48;;;;;;;5.45;1.85;;;;;;;;;;5130964;27;20034;-76
2023/08/22 10:52:14;;;;;;;8.07;2.30;;;;;;;;;;5133555;27;20050;-76
2023/08/22 10:55:01;;;;;;;5.35;1.75;;;;;;;;;;5103025;27;20076;-67
2023/08/22 10:57:31;;;;;;;4.97;2.10;;;;;;;;;;5132966;27;20085;-77
2023/08/22 11:00:00;;;;;;;5.70;1.80;;;;;;;;;;5132598;27;20043;-77
2023/08/22 11:02:31;;;;;;;5.75;2.22;;;;;;;;;;5132261;27;20120;-76
2023/08/22 11:04:57;;;;;;;6.82;2.17;;;;;;;;;;5115849;27;20050;-77
2023/08/22 11:07:24;;;;;;;4.75;1.80;;;;;;;;;;5112654;28;20082;-72
2023/08/22 11:09:51;;;;;;;6.15;1.90;;;;;;;;;;5128070;27;20046;-78
2023/08/22 11:12:24;;;;;;;4.82;1.77;;;;;;;;;;5127854;28;20039;-73
2023/08/22 11:14:51;;;;;;;5.90;1.95;;;;;;;;;;5123220;27;20096;-74
2023/08/22 11:17:17;;;;;;;6.20;1.70;;;;;;;;;;5132243;27;20080;-75
2023/08/22 11:19:44;;;;;;;6.75;2.03;;;;;;;;;;5133897;27;20047;-76
2023/08/22 11:22:13;;;;;;;3.97;1.60;;;;;;;;;;5136977;27;20042;-77
2023/08/22 11:24:42;;;;;;;4.68;2.13;;;;;;;;;;5137838;27;20035;-76
2023/08/22 11:27:08;;;;;;;6.78;1.85;;;;;;;;;;5134303;27;20035;-76
2023/08/22 11:29:51;;;;;;;8.38;1.90;;;;;;;;;;5107369;27;20047;-76
2023/08/22 11:32:24;;;;;;;3.50;1.83;;;;;;;;;;5110396;27;20053;-76
2023/08/22 11:34:51;;;;;;;8.10;1.98;;;;;;;;;;5121875;27;20072;-78
2023/08/22 11:37:20;;;;;;;5.97;1.85;;;;;;;;;;5136189;27;20074;-76
2023/08/22 11:39:47;;;;;;;6.40;1.70;;;;;;;;;;5109578;27;20410;-76
2023/08/22 11:42:14;;;;;;;3.33;1.00;;;;;;;;;;5136297;27;20047;-76
2023/08/22 11:44:59;;;;;;;5.03;0.93;;;;;;;;;;5119427;27;20043;-77
2023/08/22 11:47:35;;;;;;;4.00;1.00;;;;;;;;;;5116761;27;20051;-75
2023/08/22 11:50:02;;;;;;;1.35;0.90;;;;;;;;;;5144549;27;20051;-76
2023/08/22 11:52:29;;;;;;;3.60;1.20;;;;;;;;;;5118396;27;20091;-76
2023/08/22 11:55:04;;;;;;;1.63;1.02;;;;;;;;;;5119634;27;20043;-76
2023/08/22 11:57:31;;;;;;;4.47;1.23;;;;;;;;;;5130557;27;20129;-76
2023/08/22 11:59:59;;;;;;;4.43;1.13;;;;;;;;;;5136548;27;20171;-76
2023/08/22 12:02:25;;;;;;;5.10;1.40;;;;;;;;;;5134959;27;20560;-75
2023/08/22 12:04:55;;;;;;;3.60;1.10;;;;;;;;;;5137738;27;20058;-76
2023/08/22 12:07:21;;;;;;;4.13;1.40;;;;;;;;;;5130513;27;20095;-76
2023/08/22 12:10:03;;;;;;;2.75;1.10;;;;;;;;;;5103552;28;20047;-76
2023/08/22 12:12:30;;;;;;;3.22;1.00;;;;;;;;;;5119228;27;20499;-76
2023/08/22 12:14:56;;;;;;;1.70;0.90;;;;;;;;;;5130434;27;20058;-77
2023/08/22 12:17:23;;;;;;;3.70;1.00;;;;;;;;;;5118948;27;20034;-76
2023/08/22 12:19:49;;;;;;;2.53;1.10;;;;;;;;;;5137498;27;20043;-76
2023/08/22 12:22:15;;;;;;;2.28;1.00;;;;;;;;;;5133834;27;20116;-76
2023/08/22 12:24:44;;;;;;;2.38;0.80;;;;;;;;;;5137684;27;20085;-76
2023/08/22 12:27:10;;;;;;;1.73;0.65;;;;;;;;;;5118199;27;20047;-76
2023/08/22 12:29:36;;;;;;;2.40;0.77;;;;;;;;;;5094152;28;20047;-76
2023/08/22 12:32:02;;;;;;;4.57;1.10;;;;;;;;;;5109970;27;20107;-76
2023/08/22 12:34:28;;;;;;;5.68;1.00;;;;;;;;;;5123696;27;20042;-76
2023/08/22 12:36:54;;;;;;;3.42;0.73;;;;;;;;;;5106174;27;20078;-76
2023/08/22 12:39:20;;;;;;;3.30;0.77;;;;;;;;;;5129318;27;20047;-76
2023/08/22 12:41:46;;;;;;;1.15;0.75;;;;;;;;;;5135636;27;20054;-76
2023/08/22 12:44:13;;;;;;;1.58;0.80;;;;;;;;;;5129656;27;20038;-76
2023/08/22 12:46:39;;;;;;;2.45;0.68;;;;;;;;;;5102139;27;20034;-76
2023/08/22 12:49:05;;;;;;;3.15;0.80;;;;;;;;;;5136118;27;20065;-76
2023/08/22 12:51:31;;;;;;;3.67;0.70;;;;;;;;;;5119996;27;20058;-76
2023/08/22 12:53:57;;;;;;;1.45;0.75;;;;;;;;;;5100873;27;20048;-76
2023/08/22 12:56:26;;;;;;;3.05;1.00;;;;;;;;;;5095521;28;20438;-76
2023/08/22 12:58:53;;;;;;;2.80;0.75;;;;;;;;;;5106145;27;20452;-76
2023/08/22 13:01:19;;;;;;;2.08;0.65;;;;;;;;;;5097992;27;20114;-76
2023/08/22 13:03:45;;;;;;;0.88;0.70;;;;;;;;;;5095622;28;20476;-76
2023/08/22 13:06:11;;;;;;;4.30;0.95;;;;;;;;;;5078847;28;20059;-76
2023/08/22 13:08:37;;;;;;;3.78;1.05;;;;;;;;;;5113076;28;20138;-76
2023/08/22 13:11:03;;;;;;;3.40;1.17;;;;;;;;;;5115690;27;20051;-76
2023/08/22 13:13:29;;;;;;;4.28;0.82;;;;;;;;;;5115560;27;20047;-76
2023/08/22 13:15:55;;;;;;;4.40;1.10;;;;;;;;;;5116017;27;20137;-76
2023/08/22 13:18:21;;;;;;;5.40;1.20;;;;;;;;;;5111467;27;20039;-76
2023/08/22 13:20:47;;;;;;;3.75;1.30;;;;;;;;;;5080503;28;20047;-76
2023/08/22 13:23:13;;;;;;;2.42;0.90;;;;;;;;;;5094919;28;20564;-77
2023/08/22 13:25:40;;;;;;;1.80;0.90;;;;;;;;;;5079022;28;20043;-75
2023/08/22 13:28:07;;;;;;;1.92;0.80;;;;;;;;;;5095551;28;20097;-75
2023/08/22 13:30:33;;;;;;;2.88;1.50;;;;;;;;;;5095908;28;20122;-76
2023/08/22 13:32:59;;;;;;;1.40;1.00;;;;;;;;;;5080677;28;20090;-75
2023/08/22 13:35:26;;;;;;;3.22;1.20;;;;;;;;;;5061931;28;20048;-75
2023/08/22 13:37:52;;;;;;;2.40;1.40;;;;;;;;;;5094481;28;20047;-75
2023/08/22 13:40:18;;;;;;;4.38;1.33;;;;;;;;;;5096529;27;20062;-75
2023/08/22 13:42:45;;;;;;;6.15;1.88;;;;;;;;;;5098112;27;20052;-75
2023/08/22 13:45:11;;;;;;;4.55;1.65;;;;;;;;;;5093859;27;20043;-76
2023/08/22 13:47:40;;;;;;;5.03;1.83;;;;;;;;;;5098112;28;20044;-75
2023/08/22 13:50:06;;;;;;;5.15;1.90;;;;;;;;;;5094637;28;20439;-75
2023/08/22 13:52:32;;;;;;;5.97;1.50;;;;;;;;;;5094875;28;20189;-75
2023/08/22 13:54:58;;;;;;;5.75;2.00;;;;;;;;;;5095036;28;20100;-76
2023/08/22 13:57:27;;;;;;;5.10;2.33;;;;;;;;;;5077244;28;20492;-75
2023/08/22 13:59:53;;;;;;;7.47;2.30;;;;;;;;;;5094826;28;20385;-75
2023/08/22 14:02:19;;;;;;;5.70;2.42;;;;;;;;;;5093532;28;20066;-75
2023/08/22 14:04:45;;;;;;;5.22;2.20;;;;;;;;;;5091713;27;20407;-75
2023/08/22 14:07:11;;;;;;;4.50;2.00;;;;;;;;;;5081743;27;20390;-76
2023/08/22 14:09:37;;;;;;;5.80;2.00;;;;;;;;;;5097894;27;20507;-75
2023/08/22 14:12:03;;;;;;;5.00;2.17;;;;;;;;;;5114639;27;20391;-75
2023/08/22 14:14:29;;;;;;;4.07;1.85;;;;;;;;;;5084545;28;20047;-75
2023/08/22 14:16:55;;;;;;;5.55;2.22;;;;;;;;;;5112648;27;20054;-75
2023/08/22 14:19:21;;;;;;;5.20;2.67;;;;;;;;;;5114447;27;20058;-75
2023/08/22 14:21:48;;;;;;;9.43;3.20;;;;;;;;;;5098079;27;20043;-76
2023/08/22 14:24:14;;;;;;;6.75;2.60;;;;;;;;;;5094711;27;20047;-75
2023/08/22 14:26:40;;;;;;;5.55;2.85;;;;;;;;;;5107963;27;20080;-76
2023/08/22 14:29:06;;;;;;;7.90;2.50;;;;;;;;;;5113629;27;20096;-75
2023/08/22 14:31:33;;;;;;;8.27;2.75;;;;;;;;;;5113408;28;20069;-77
2023/08/22 14:33:59;;;;;;;7.63;2.53;;;;;;;;;;5099891;28;20135;-75
2023/08/22 14:36:25;;;;;;;6.50;3.00;;;;;;;;;;5076573;28;20040;-75
2023/08/22 14:38:52;;;;;;;6.43;2.78;;;;;;;;;;5094034;28;20043;-75
2023/08/22 14:41:18;;;;;;;9.73;3.10;;;;;;;;;;5084114;27;20065;-75
2023/08/22 14:43:44;;;;;;;6.97;2.97;;;;;;;;;;5080236;27;20046;-75
2023/08/22 14:46:10;;;;;;;8.93;3.35;;;;;;;;;;5106418;27;20047;-77
2023/08/22 14:48:36;;;;;;;9.30;3.25;;;;;;;;;;5089142;28;20101;-75
2023/08/22 14:51:02;;;;;;;8.48;3.33;;;;;;;;;;5113568;27;20092;-77
2023/08/22 14:53:28;;;;;;;9.25;3.53;;;;;;;;;;5100915;28;20292;-75